createdAt,value
2023-03-26T00:02:32.476Z,15.94
2023-03-26T00:07:35.660Z,15.94
2023-03-26T00:12:51.867Z,15.82
2023-03-26T00:18:04.746Z,15.63
2023-03-26T00:23:10.234Z,15.38
2023-03-26T00:28:17.312Z,15.36
2023-03-26T00:33:21.993Z,15.33
2023-03-26T00:38:37.606Z,15.32
2023-03-26T01:27:36.540Z,15.19
2023-03-26T01:33:02.420Z,15.26
2023-03-26T01:38:24.191Z,15.30
2023-03-26T01:43:41.017Z,15.22
2023-03-26T01:49:11.652Z,15.25
2023-03-26T04:40:10.878Z,14.00
2023-03-26T04:45:23.744Z,13.95
2023-03-26T04:50:32.030Z,13.91
2023-03-26T04:55:44.271Z,13.85
2023-03-26T07:41:04.112Z,14.78
2023-03-26T07:47:15.898Z,16.33
2023-03-26T07:51:49.455Z,17.42
2023-03-26T07:57:04.243Z,17.12
2023-03-26T08:02:37.690Z,15.98
2023-03-26T08:08:19.022Z,15.35
2023-03-26T08:13:38.112Z,15.05
2023-03-26T09:20:40.306Z,19.54
2023-03-26T09:26:00.405Z,19.79
2023-03-26T09:31:45.469Z,21.70
2023-03-26T09:37:24.947Z,21.07
2023-03-26T09:43:07.005Z,19.43
2023-03-26T10:51:50.171Z,18.01
2023-03-26T10:56:57.563Z,17.74
2023-03-26T11:02:30.353Z,17.57
2023-03-26T11:07:49.768Z,17.78
2023-03-26T12:24:31.922Z,24.80
2023-03-26T13:28:27.638Z,23.69
2023-03-26T13:33:43.369Z,24.72
2023-03-26T13:39:04.196Z,24.54
2023-03-26T13:44:21.093Z,24.46
2023-03-26T13:49:41.242Z,24.27
2023-03-26T13:54:50.976Z,24.05
2023-03-26T14:00:02.238Z,24.60
2023-03-26T14:05:16.778Z,24.30
2023-03-26T14:10:32.968Z,24.04
2023-03-26T14:15:43.711Z,23.31
2023-03-26T14:21:14.280Z,23.37
2023-03-26T14:27:02.999Z,22.26
2023-03-26T14:32:32.001Z,22.59
2023-03-26T14:37:53.781Z,21.92
2023-03-26T14:43:21.373Z,21.28
2023-03-26T14:48:59.075Z,21.41
2023-03-26T14:54:06.960Z,21.57
2023-03-26T15:00:02.263Z,21.05
2023-03-26T15:05:49.661Z,21.04
2023-03-26T15:11:20.608Z,20.99
2023-03-26T15:16:52.078Z,20.91
2023-03-26T15:22:31.704Z,20.88
2023-03-26T15:28:22.934Z,20.99
2023-03-26T16:36:43.775Z,19.93
2023-03-26T16:42:11.513Z,19.45
2023-03-26T16:47:24.165Z,19.60
2023-03-26T16:52:48.143Z,19.38
2023-03-26T16:57:57.608Z,19.29
2023-03-26T17:03:26.289Z,19.45
2023-03-26T17:09:48.113Z,19.47
2023-03-26T17:46:03.215Z,19.06
2023-03-26T17:51:23.778Z,19.01
2023-03-26T17:56:46.457Z,18.94
2023-03-26T18:02:07.909Z,18.88
2023-03-26T18:07:36.106Z,18.74
2023-03-26T18:13:18.844Z,18.35
2023-03-26T18:18:31.344Z,18.29
2023-03-26T18:23:45.247Z,18.07
2023-03-26T18:28:53.067Z,17.91
2023-03-26T18:34:08.778Z,17.67
2023-03-26T18:39:13.918Z,17.40
2023-03-26T18:44:20.866Z,17.23
2023-03-26T18:49:34.817Z,16.88
2023-03-26T18:54:39.912Z,16.82
2023-03-26T18:59:45.672Z,16.70
2023-03-26T19:04:55.549Z,16.77
2023-03-26T19:10:14.121Z,16.52
2023-03-26T19:15:20.010Z,16.43
2023-03-26T19:20:28.050Z,16.39
2023-03-26T19:25:45.345Z,16.21
2023-03-26T19:30:53.060Z,16.09
2023-03-26T19:36:23.342Z,15.87
2023-03-26T19:41:33.736Z,15.83
2023-03-26T19:46:54.480Z,15.40
2023-03-26T19:52:22.025Z,15.36
2023-03-26T19:57:47.609Z,15.36
2023-03-26T20:02:52.831Z,15.13
2023-03-26T20:08:00.371Z,15.06
2023-03-26T20:13:07.449Z,15.12
2023-03-26T20:18:13.717Z,14.89
2023-03-26T20:23:20.087Z,14.86
2023-03-26T20:28:30.455Z,14.82
2023-03-26T20:33:39.267Z,14.89
2023-03-26T20:38:46.655Z,14.73
2023-03-26T20:44:02.052Z,14.66
2023-03-26T20:49:11.111Z,14.53
2023-03-26T20:54:26.096Z,14.48
2023-03-26T20:59:31.189Z,14.50
2023-03-26T21:44:19.430Z,13.83
2023-03-26T21:49:25.891Z,13.80
2023-03-26T21:54:32.588Z,14.08
2023-03-26T21:59:54.222Z,14.16
2023-03-26T22:05:16.704Z,14.24
2023-03-26T22:10:20.084Z,13.81
2023-03-26T22:15:26.843Z,13.89
2023-03-26T22:20:35.316Z,13.86
2023-03-26T22:25:44.461Z,14.04
2023-03-26T22:30:53.674Z,13.90
2023-03-26T22:36:23.477Z,13.63
2023-03-26T23:20:15.027Z,13.28
